Time;durP1;ratioP1;P1;durP2;ratioP2;P2;SDS_P1;SDS_P2;PMS_P1;PMS_P2;Temp;Humidity;BMP_temperature;BMP_pressure;BME280_temperature;BME280_humidity;BME280_pressure;Samples;Min_cycle;Max_cycle;Signal;HPM_P1;HPM_P2
2021/12/02 00:02:23;;;;;;;1.10;0.85;;;5.80;99.90;;;;;;5005895;28;20211;-82
2021/12/02 00:04:55;;;;;;;4.40;0.98;;;5.70;99.90;;;;;;5006964;28;20211;-82
2021/12/02 00:07:23;;;;;;;1.95;1.30;;;5.70;99.90;;;;;;5006516;28;20206;-82
2021/12/02 00:09:51;;;;;;;0.82;0.82;;;5.80;99.90;;;;;;5005815;28;20231;-82
2021/12/02 00:12:23;;;;;;;1.13;1.10;;;5.80;99.90;;;;;;5011190;28;20204;-82
2021/12/02 00:14:58;;;;;;;1.08;0.95;;;5.60;99.90;;;;;;5011051;28;20275;-82
2021/12/02 00:17:27;;;;;;;1.30;0.68;;;5.60;99.90;;;;;;5011414;28;20215;-81
2021/12/02 00:23:12;;;;;;;1.25;0.75;;;5.80;99.90;;;;;;5012419;28;20214;-82
2021/12/02 00:25:44;;;;;;;1.00;1.00;;;5.60;99.90;;;;;;4985918;28;20238;-82
2021/12/02 00:28:12;;;;;;;0.52;0.52;;;5.50;99.90;;;;;;4985677;28;20217;-82
2021/12/02 00:30:40;;;;;;;1.48;0.80;;;5.40;99.90;;;;;;5006039;28;20254;-82
2021/12/02 00:33:10;;;;;;;1.35;1.10;;;5.20;99.90;;;;;;5006652;28;20217;-82
2021/12/02 00:35:42;;;;;;;1.02;0.60;;;5.20;99.90;;;;;;5006634;28;20224;-82
2021/12/02 00:38:12;;;;;;;0.98;0.70;;;5.30;99.90;;;;;;5005421;28;20215;-82
2021/12/02 00:40:40;;;;;;;0.80;0.80;;;5.10;99.90;;;;;;5005739;28;20208;-82
2021/12/02 00:43:17;;;;;;;0.90;0.90;;;5.10;99.90;;;;;;5005090;28;20200;-82
2021/12/02 00:45:48;;;;;;;0.73;0.73;;;5.20;99.90;;;;;;5005551;28;20227;-82
2021/12/02 00:48:17;;;;;;;0.77;0.77;;;5.00;99.90;;;;;;5004895;28;20617;-82
2021/12/02 00:50:50;;;;;;;0.60;0.60;;;5.00;99.90;;;;;;5005667;28;20237;-82
2021/12/02 00:53:21;;;;;;;0.70;0.70;;;5.10;99.90;;;;;;5005618;28;20203;-82
2021/12/02 00:55:53;;;;;;;1.20;0.70;;;5.00;99.90;;;;;;5004533;28;20232;-82
2021/12/02 00:58:23;;;;;;;0.80;0.80;;;5.20;99.90;;;;;;5003017;28;20231;-83
2021/12/02 01:00:58;;;;;;;0.60;0.60;;;5.20;99.90;;;;;;5004868;28;20223;-82
2021/12/02 01:03:28;;;;;;;0.85;0.85;;;5.30;99.90;;;;;;5004816;28;20209;-82
2021/12/02 01:05:57;;;;;;;1.45;0.70;;;5.30;99.90;;;;;;5004412;28;20234;-82
2021/12/02 01:08:31;;;;;;;2.03;1.38;;;5.00;99.90;;;;;;5004417;28;20203;-82
2021/12/02 01:11:03;;;;;;;0.60;0.57;;;5.00;99.90;;;;;;5002512;28;20229;-82
2021/12/02 01:13:32;;;;;;;1.33;1.10;;;5.00;99.90;;;;;;5000148;28;20206;-82
2021/12/02 01:16:00;;;;;;;1.75;0.95;;;4.90;99.90;;;;;;4999021;28;20231;-82
2021/12/02 01:18:30;;;;;;;0.95;0.95;;;4.90;99.90;;;;;;5000195;28;20218;-83
2021/12/02 01:21:06;;;;;;;0.52;0.52;;;4.90;99.90;;;;;;5002346;28;20208;-83
2021/12/02 01:23:37;;;;;;;2.42;1.00;;;4.80;99.90;;;;;;5002839;28;20222;-83
2021/12/02 01:26:17;;;;;;;0.98;0.98;;;4.90;99.90;;;;;;5003673;28;20227;-83
2021/12/02 01:28:50;;;;;;;1.17;0.85;;;4.90;99.90;;;;;;4983987;28;20208;-82
2021/12/02 01:31:17;;;;;;;0.82;0.82;;;5.00;99.90;;;;;;4983881;28;20224;-82
2021/12/02 01:33:47;;;;;;;1.70;0.70;;;5.10;99.90;;;;;;5000601;28;20203;-82
2021/12/02 01:36:18;;;;;;;2.28;0.90;;;5.20;99.90;;;;;;5000219;28;20293;-83
2021/12/02 01:38:44;;;;;;;1.00;1.00;;;5.20;99.90;;;;;;5000860;28;20213;-82
2021/12/02 01:41:16;;;;;;;0.70;0.70;;;5.20;99.90;;;;;;5007325;28;20200;-82
2021/12/02 01:43:50;;;;;;;0.75;0.75;;;5.30;99.90;;;;;;5012246;28;20220;-81
2021/12/02 01:46:21;;;;;;;1.15;1.05;;;5.40;99.90;;;;;;5011361;28;20295;-82
2021/12/02 01:49:00;;;;;;;0.70;0.70;;;5.30;99.90;;;;;;4994248;28;20242;-81
2021/12/02 01:51:29;;;;;;;2.00;1.15;;;5.20;99.90;;;;;;5010589;28;20246;-82
2021/12/02 01:54:06;;;;;;;1.30;1.13;;;5.10;99.90;;;;;;5012027;28;20206;-81
2021/12/02 01:56:41;;;;;;;1.10;1.00;;;5.00;99.90;;;;;;5009165;28;20226;-82
2021/12/02 01:59:12;;;;;;;1.10;0.88;;;4.80;99.90;;;;;;5006536;28;20207;-81
2021/12/02 02:01:42;;;;;;;0.90;0.90;;;4.70;99.90;;;;;;5005694;28;20203;-81
2021/12/02 02:04:10;;;;;;;0.88;0.80;;;4.40;99.90;;;;;;5003137;28;20204;-82
2021/12/02 02:06:41;;;;;;;1.38;0.93;;;4.20;99.90;;;;;;5000579;28;20238;-81
2021/12/02 02:09:09;;;;;;;0.70;0.70;;;3.90;99.90;;;;;;5000479;28;20210;-82
2021/12/02 02:11:36;;;;;;;0.90;0.90;;;3.80;99.90;;;;;;5007022;28;20261;-81
2021/12/02 02:14:06;;;;;;;0.70;0.70;;;3.70;99.90;;;;;;5013864;28;20207;-81
2021/12/02 02:16:33;;;;;;;0.90;0.60;;;3.60;99.90;;;;;;5017443;28;20244;-79
2021/12/02 02:18:59;;;;;;;0.43;0.40;;;3.50;99.90;;;;;;5019650;28;20225;-80
2021/12/02 02:21:28;;;;;;;1.85;1.13;;;3.50;99.90;;;;;;5019463;28;20203;-79
2021/12/02 02:23:58;;;;;;;1.27;1.17;;;3.50;99.90;;;;;;5019523;28;20211;-80
2021/12/02 02:29:37;;;;;;;1.00;0.90;;;3.60;99.90;;;;;;5018017;28;20280;-79
2021/12/02 02:32:05;;;;;;;2.20;1.20;;;3.70;99.90;;;;;;5015411;28;20223;-82
2021/12/02 02:34:32;;;;;;;1.60;0.93;;;3.70;99.90;;;;;;5013867;28;20216;-80
2021/12/02 02:37:03;;;;;;;1.63;0.70;;;3.80;99.90;;;;;;5012273;28;20220;-81
2021/12/02 02:39:31;;;;;;;1.10;0.88;;;3.90;99.90;;;;;;5013342;28;20225;-81
2021/12/02 02:41:59;;;;;;;1.83;1.10;;;4.10;99.90;;;;;;5014917;28;20207;-81
2021/12/02 02:44:28;;;;;;;1.00;0.95;;;4.30;99.90;;;;;;5015379;28;20190;-82
2021/12/02 02:46:56;;;;;;;2.42;1.20;;;4.30;99.90;;;;;;5017161;28;20301;-79
2021/12/02 02:49:23;;;;;;;1.10;1.00;;;4.40;99.90;;;;;;5017737;28;20658;-79
2021/12/02 02:51:51;;;;;;;2.17;1.27;;;4.40;99.90;;;;;;5017758;28;20292;-80
2021/12/02 02:54:20;;;;;;;1.80;1.70;;;4.50;99.90;;;;;;5018172;28;20216;-79
2021/12/02 02:56:52;;;;;;;2.03;1.17;;;4.40;99.90;;;;;;5016831;28;20238;-80
2021/12/02 02:59:28;;;;;;;1.73;1.63;;;4.50;99.90;;;;;;5016500;28;20210;-79
2021/12/02 03:02:04;;;;;;;3.08;1.20;;;4.40;99.90;;;;;;5014709;28;20210;-80
2021/12/02 03:04:36;;;;;;;1.35;1.35;;;4.40;99.90;;;;;;5014709;28;20299;-80
2021/12/02 03:07:05;;;;;;;1.15;1.10;;;4.40;99.90;;;;;;5014859;28;20298;-80
2021/12/02 03:09:56;;;;;;;1.67;1.58;;;4.40;99.90;;;;;;5015568;28;20204;-80
2021/12/02 03:12:28;;;;;;;2.15;1.42;;;4.40;99.90;;;;;;5015615;28;20252;-80
2021/12/02 03:17:42;;;;;;;2.92;1.25;;;4.20;99.90;;;;;;5015275;28;20245;-80
2021/12/02 03:20:10;;;;;;;3.53;1.20;;;4.10;99.90;;;;;;5014879;28;20234;-80
2021/12/02 03:22:37;;;;;;;0.98;0.98;;;4.10;99.90;;;;;;5015378;28;20192;-80
2021/12/02 03:25:07;;;;;;;1.40;1.30;;;4.10;99.90;;;;;;5014924;28;20238;-79
2021/12/02 03:27:34;;;;;;;0.90;0.90;;;4.10;99.90;;;;;;5015814;28;20222;-80
2021/12/02 03:30:01;;;;;;;0.90;0.90;;;4.10;99.90;;;;;;5014622;28;20209;-81
2021/12/02 03:32:28;;;;;;;1.27;1.10;;;4.00;99.90;;;;;;5014472;28;20232;-81
2021/12/02 03:34:54;;;;;;;0.98;0.98;;;4.00;99.90;;;;;;5013952;28;20227;-80
2021/12/02 03:37:21;;;;;;;1.42;1.10;;;4.00;99.90;;;;;;5014868;28;20199;-80
2021/12/02 03:39:48;;;;;;;1.63;1.20;;;4.00;99.90;;;;;;5013369;28;20213;-79
2021/12/02 03:42:16;;;;;;;1.10;1.10;;;4.00;99.90;;;;;;5014184;28;20197;-80
2021/12/02 03:44:43;;;;;;;1.20;1.08;;;4.00;99.90;;;;;;5013290;28;20207;-79
2021/12/02 03:47:10;;;;;;;1.65;1.35;;;4.10;99.90;;;;;;5013435;28;20208;-80
2021/12/02 03:49:36;;;;;;;1.55;1.20;;;4.00;99.90;;;;;;5012829;28;20204;-80
2021/12/02 03:52:04;;;;;;;1.30;0.93;;;4.20;99.90;;;;;;5013860;28;20247;-80
2021/12/02 03:54:30;;;;;;;3.58;1.17;;;4.10;99.90;;;;;;5014469;28;20214;-81
2021/12/02 03:56:57;;;;;;;0.60;0.60;;;4.20;99.90;;;;;;5014445;28;20231;-80
2021/12/02 03:59:25;;;;;;;1.20;1.10;;;4.20;99.90;;;;;;5015190;28;20194;-80
2021/12/02 04:01:52;;;;;;;1.35;1.20;;;4.20;99.90;;;;;;5014765;28;20206;-80
2021/12/02 04:04:19;;;;;;;0.93;0.93;;;4.10;99.90;;;;;;5014422;28;20212;-81
2021/12/02 04:06:45;;;;;;;1.10;1.10;;;4.20;99.90;;;;;;5012556;28;20225;-80
2021/12/02 04:09:15;;;;;;;0.88;0.88;;;4.30;99.90;;;;;;5013237;28;20210;-81
2021/12/02 04:11:47;;;;;;;0.93;0.93;;;4.20;99.90;;;;;;5012291;28;20231;-81
2021/12/02 04:14:20;;;;;;;1.65;1.13;;;4.10;99.90;;;;;;5013729;28;20205;-81
2021/12/02 04:16:57;;;;;;;0.93;0.93;;;4.00;99.90;;;;;;5012143;28;20293;-81
2021/12/02 04:19:25;;;;;;;1.65;1.30;;;3.90;99.90;;;;;;5012442;28;20207;-81
2021/12/02 04:21:53;;;;;;;1.17;1.10;;;4.10;99.90;;;;;;5012398;28;20209;-81
2021/12/02 04:24:20;;;;;;;1.08;1.08;;;4.20;99.90;;;;;;5013260;28;20205;-81
2021/12/02 04:26:48;;;;;;;1.80;1.13;;;4.00;99.90;;;;;;5013226;28;20226;-81
2021/12/02 04:29:15;;;;;;;4.30;1.10;;;4.10;99.90;;;;;;5012943;28;20216;-81
2021/12/02 04:31:43;;;;;;;5.05;1.38;;;4.00;99.90;;;;;;5012496;28;20227;-81
2021/12/02 04:34:11;;;;;;;1.75;1.30;;;3.90;99.90;;;;;;5012941;28;20275;-81
2021/12/02 04:36:39;;;;;;;1.52;0.80;;;3.90;99.90;;;;;;5012580;28;20234;-81
2021/12/02 04:39:06;;;;;;;2.70;1.02;;;4.00;99.90;;;;;;4994551;28;20221;-80
2021/12/02 04:41:33;;;;;;;1.20;1.20;;;4.10;99.90;;;;;;4993938;28;20201;-81
2021/12/02 04:44:00;;;;;;;0.82;0.82;;;4.00;99.90;;;;;;5011676;28;20216;-81
2021/12/02 04:46:26;;;;;;;1.10;0.95;;;4.00;99.90;;;;;;5012730;28;20227;-81
2021/12/02 04:48:53;;;;;;;1.15;0.95;;;4.00;99.90;;;;;;5012705;28;20583;-82
2021/12/02 04:51:21;;;;;;;1.23;1.13;;;4.00;99.90;;;;;;5012513;28;20284;-81
2021/12/02 04:53:48;;;;;;;1.20;1.20;;;3.90;99.90;;;;;;5013298;28;20211;-81
2021/12/02 04:56:15;;;;;;;1.30;1.17;;;3.90;99.90;;;;;;5013333;28;20218;-81
2021/12/02 04:58:41;;;;;;;1.42;1.13;;;3.90;99.90;;;;;;5012789;28;20493;-81
2021/12/02 05:01:08;;;;;;;0.60;0.60;;;3.90;99.90;;;;;;5012477;28;20193;-81
2021/12/02 05:03:35;;;;;;;1.30;1.20;;;3.90;99.90;;;;;;5012386;28;20208;-81
2021/12/02 05:06:02;;;;;;;1.48;1.48;;;4.00;99.90;;;;;;5012228;28;20248;-81
2021/12/02 05:08:30;;;;;;;6.53;1.65;;;4.00;99.90;;;;;;5012679;28;20199;-80
2021/12/02 05:10:57;;;;;;;2.00;1.10;;;4.00;99.90;;;;;;5011993;28;20298;-80
2021/12/02 05:13:23;;;;;;;1.67;1.35;;;4.10;99.90;;;;;;5012044;28;20202;-81
2021/12/02 05:15:50;;;;;;;1.48;1.20;;;4.00;99.90;;;;;;5011984;28;20226;-81
2021/12/02 05:18:17;;;;;;;1.58;1.45;;;4.20;99.90;;;;;;5011870;28;20212;-81
2021/12/02 05:20:43;;;;;;;1.00;0.98;;;4.30;99.90;;;;;;5011440;28;20276;-81
2021/12/02 05:23:10;;;;;;;3.63;1.20;;;4.30;99.90;;;;;;5011915;28;20189;-81
2021/12/02 05:25:43;;;;;;;6.82;1.88;;;4.30;99.90;;;;;;5012040;28;20223;-81
2021/12/02 05:28:10;;;;;;;1.60;1.50;;;4.30;99.90;;;;;;5011815;28;20239;-81
2021/12/02 05:30:36;;;;;;;1.23;1.10;;;4.20;99.90;;;;;;5011524;28;20220;-81
2021/12/02 05:33:03;;;;;;;1.85;1.40;;;4.30;99.90;;;;;;5011387;28;20237;-81
2021/12/02 05:35:30;;;;;;;1.27;1.20;;;4.20;99.90;;;;;;5011272;28;20227;-81
2021/12/02 05:37:56;;;;;;;2.88;1.80;;;4.20;99.90;;;;;;5011120;28;20573;-81
2021/12/02 05:40:23;;;;;;;1.77;1.40;;;4.20;99.90;;;;;;5011616;28;20213;-81
2021/12/02 05:42:51;;;;;;;2.35;1.00;;;4.20;99.90;;;;;;5011929;28;20206;-81
2021/12/02 05:45:18;;;;;;;5.50;1.55;;;4.10;99.90;;;;;;5012149;28;20219;-81
2021/12/02 05:47:45;;;;;;;7.07;1.50;;;4.10;99.90;;;;;;5012456;28;20215;-81
2021/12/02 05:50:12;;;;;;;4.93;1.35;;;4.00;99.90;;;;;;5013563;28;20680;-81
2021/12/02 05:52:39;;;;;;;1.98;1.40;;;4.20;99.90;;;;;;5013641;28;20286;-80
2021/12/02 05:55:06;;;;;;;1.25;1.15;;;4.00;99.90;;;;;;5013008;28;20230;-81
2021/12/02 05:57:34;;;;;;;1.73;1.30;;;4.00;99.90;;;;;;5012114;28;20235;-81
2021/12/02 06:00:03;;;;;;;1.30;1.20;;;3.90;99.90;;;;;;5013357;28;20208;-81
2021/12/02 06:02:30;;;;;;;1.20;1.10;;;3.90;99.90;;;;;;5013404;28;20216;-81
2021/12/02 06:04:56;;;;;;;1.98;1.30;;;3.80;99.90;;;;;;5013119;28;20232;-80
2021/12/02 06:07:23;;;;;;;1.10;1.00;;;3.80;99.90;;;;;;5012578;28;20208;-83
2021/12/02 06:09:52;;;;;;;0.63;0.63;;;3.80;99.90;;;;;;5012722;28;20281;-81
2021/12/02 06:12:19;;;;;;;1.30;0.90;;;3.70;99.90;;;;;;5014233;28;20217;-81
2021/12/02 06:14:46;;;;;;;1.45;1.05;;;3.60;99.90;;;;;;5013501;28;20205;-81
2021/12/02 06:17:14;;;;;;;0.98;0.90;;;3.50;99.90;;;;;;5013418;28;20216;-80
2021/12/02 06:19:41;;;;;;;1.25;1.15;;;3.60;99.90;;;;;;5013397;28;20196;-81
2021/12/02 06:22:09;;;;;;;1.17;1.08;;;3.50;99.90;;;;;;5012940;28;20203;-81
2021/12/02 06:24:43;;;;;;;0.98;0.90;;;3.50;99.90;;;;;;5012681;28;20210;-80
2021/12/02 06:27:10;;;;;;;0.85;0.82;;;3.50;99.90;;;;;;5012385;28;20239;-80
2021/12/02 06:29:37;;;;;;;1.42;0.80;;;3.50;99.90;;;;;;5012670;28;20576;-81
2021/12/02 06:32:06;;;;;;;0.88;0.88;;;3.40;99.90;;;;;;5011605;28;20706;-81
2021/12/02 06:34:35;;;;;;;0.65;0.65;;;3.30;99.90;;;;;;5011934;28;20291;-81
2021/12/02 06:37:01;;;;;;;1.23;1.13;;;3.40;99.90;;;;;;5011430;28;20214;-80
2021/12/02 06:39:28;;;;;;;0.80;0.68;;;3.40;99.90;;;;;;5011638;28;20191;-80
2021/12/02 06:41:55;;;;;;;1.00;1.00;;;3.40;99.90;;;;;;5007183;28;20201;-82
2021/12/02 06:44:22;;;;;;;1.20;1.10;;;3.40;99.90;;;;;;5007842;28;20273;-80
2021/12/02 06:46:49;;;;;;;0.65;0.65;;;3.30;99.90;;;;;;5015297;28;20219;-80
2021/12/02 06:49:15;;;;;;;0.70;0.70;;;3.40;99.90;;;;;;5015340;28;20184;-81
2021/12/02 06:51:43;;;;;;;1.38;1.00;;;3.30;99.90;;;;;;5014691;28;20288;-81
2021/12/02 06:54:10;;;;;;;5.45;1.48;;;3.30;99.90;;;;;;5014004;28;20204;-81
2021/12/02 06:56:37;;;;;;;2.28;2.10;;;3.30;99.90;;;;;;5014518;28;20802;-81
2021/12/02 06:59:04;;;;;;;1.80;1.30;;;3.30;99.90;;;;;;5014423;28;20209;-82
2021/12/02 07:01:30;;;;;;;2.03;0.95;;;3.30;99.90;;;;;;5013990;28;20481;-82
2021/12/02 07:03:57;;;;;;;2.15;0.90;;;3.30;99.90;;;;;;5013606;28;20207;-81
2021/12/02 07:06:24;;;;;;;1.58;0.80;;;3.30;99.90;;;;;;5014306;28;20231;-81
2021/12/02 07:08:52;;;;;;;1.08;0.98;;;3.40;99.90;;;;;;5013870;28;20433;-82
2021/12/02 07:11:19;;;;;;;1.13;0.93;;;3.50;99.90;;;;;;5013750;28;20217;-80
2021/12/02 07:13:49;;;;;;;3.45;1.25;;;3.40;99.90;;;;;;5012282;28;20336;-81
2021/12/02 07:16:16;;;;;;;0.80;0.80;;;3.40;99.90;;;;;;5004336;28;20232;-82
2021/12/02 07:18:47;;;;;;;2.80;1.02;;;3.40;99.90;;;;;;5000946;28;20226;-84
2021/12/02 07:21:14;;;;;;;1.02;0.93;;;3.40;99.90;;;;;;5000386;28;20206;-84
2021/12/02 07:23:41;;;;;;;3.25;1.17;;;3.50;99.90;;;;;;5002037;28;20200;-84
2021/12/02 07:26:09;;;;;;;1.40;1.10;;;3.50;99.90;;;;;;5002570;28;20236;-82
2021/12/02 07:28:36;;;;;;;1.92;0.90;;;3.50;99.90;;;;;;5004218;28;20203;-83
2021/12/02 07:31:05;;;;;;;0.75;0.75;;;3.50;99.90;;;;;;5004359;28;20215;-83
2021/12/02 07:33:37;;;;;;;0.88;0.88;;;3.60;99.90;;;;;;4999737;28;20716;-83
2021/12/02 07:36:04;;;;;;;0.93;0.88;;;3.60;99.90;;;;;;5000899;28;20230;-82
2021/12/02 07:38:31;;;;;;;1.10;0.98;;;3.60;99.90;;;;;;4999005;28;20205;-83
2021/12/02 07:41:03;;;;;;;0.70;0.70;;;3.60;99.90;;;;;;4998455;28;20202;-82
2021/12/02 07:43:32;;;;;;;1.38;1.27;;;3.50;99.90;;;;;;4999813;28;20194;-81
2021/12/02 07:45:59;;;;;;;1.55;1.35;;;3.60;99.90;;;;;;4998392;28;20588;-83
2021/12/02 07:48:27;;;;;;;1.27;1.17;;;3.60;99.90;;;;;;4998888;28;20206;-84
2021/12/02 07:50:56;;;;;;;6.25;1.80;;;3.60;99.90;;;;;;4999260;28;20205;-83
2021/12/02 07:53:24;;;;;;;3.83;2.28;;;3.50;99.90;;;;;;4998037;28;20230;-83
2021/12/02 07:55:53;;;;;;;2.58;2.38;;;3.60;99.90;;;;;;4999706;28;20240;-83
2021/12/02 07:58:22;;;;;;;2.08;1.98;;;3.50;99.90;;;;;;4999665;28;20202;-84
2021/12/02 08:00:51;;;;;;;1.70;1.60;;;3.60;99.90;;;;;;4999640;28;20214;-84
2021/12/02 08:03:18;;;;;;;2.17;1.67;;;3.60;99.90;;;;;;5000513;28;20578;-84
2021/12/02 08:05:45;;;;;;;2.75;2.58;;;3.50;99.90;;;;;;5002733;28;20733;-83
2021/12/02 08:08:12;;;;;;;2.75;2.50;;;3.60;99.90;;;;;;5002650;28;20209;-84
2021/12/02 08:10:39;;;;;;;1.75;1.65;;;3.60;99.90;;;;;;5003754;28;20235;-83
2021/12/02 08:13:06;;;;;;;3.17;2.35;;;3.50;99.90;;;;;;5002472;28;20233;-83
2021/12/02 08:15:33;;;;;;;2.42;2.22;;;3.60;99.90;;;;;;5002166;28;20289;-82
2021/12/02 08:18:01;;;;;;;2.75;2.55;;;3.60;99.90;;;;;;5003952;28;20213;-83
2021/12/02 08:20:29;;;;;;;3.50;2.30;;;3.60;99.90;;;;;;5002886;28;20212;-85
2021/12/02 08:22:56;;;;;;;3.45;2.95;;;3.60;99.90;;;;;;4999614;28;20208;-83
2021/12/02 08:25:25;;;;;;;2.38;2.22;;;3.70;99.90;;;;;;5002645;28;20226;-83
2021/12/02 08:27:52;;;;;;;3.38;2.55;;;3.70;99.90;;;;;;4999604;28;20278;-81
2021/12/02 08:30:22;;;;;;;3.70;2.17;;;3.90;99.90;;;;;;4997985;28;20204;-80
2021/12/02 08:32:49;;;;;;;3.70;3.03;;;3.90;99.90;;;;;;4998009;28;20237;-80
2021/12/02 08:35:18;;;;;;;4.35;3.20;;;4.10;99.90;;;;;;4999968;28;20290;-84
2021/12/02 08:37:49;;;;;;;2.75;2.28;;;4.10;99.90;;;;;;4999793;28;20208;-84
2021/12/02 08:40:19;;;;;;;2.55;2.35;;;4.20;99.90;;;;;;5000079;28;20234;-85
2021/12/02 08:42:46;;;;;;;2.95;2.75;;;4.30;99.90;;;;;;5005643;28;20200;-82
2021/12/02 08:45:13;;;;;;;2.38;2.15;;;4.50;99.90;;;;;;5005599;28;20328;-82
2021/12/02 08:47:44;;;;;;;2.10;1.90;;;4.50;99.90;;;;;;5006423;28;20207;-82
2021/12/02 08:50:11;;;;;;;2.70;2.50;;;4.50;99.90;;;;;;5004287;28;20207;-82
2021/12/02 08:52:40;;;;;;;2.45;1.77;;;4.60;99.90;;;;;;5005407;28;20220;-82
2021/12/02 08:55:07;;;;;;;2.50;2.30;;;4.70;99.90;;;;;;5005351;28;20236;-82
2021/12/02 08:57:36;;;;;;;2.10;2.00;;;4.70;99.90;;;;;;5006064;28;20207;-82
2021/12/02 09:00:05;;;;;;;3.67;2.25;;;4.70;99.90;;;;;;5006399;28;20207;-83
2021/12/02 09:02:32;;;;;;;2.05;1.85;;;4.90;99.90;;;;;;5005254;28;20271;-82
2021/12/02 09:04:59;;;;;;;1.95;1.85;;;4.80;99.90;;;;;;5004192;28;20231;-82
2021/12/02 09:07:26;;;;;;;2.15;1.95;;;4.90;99.90;;;;;;5005211;28;20218;-82
2021/12/02 09:09:54;;;;;;;2.45;2.13;;;5.00;99.90;;;;;;5004830;28;20211;-83
2021/12/02 09:12:21;;;;;;;2.10;1.95;;;5.00;99.90;;;;;;5005333;28;20208;-83
2021/12/02 09:14:47;;;;;;;1.92;1.80;;;5.20;99.90;;;;;;5005682;28;20211;-83
2021/12/02 09:17:14;;;;;;;2.92;1.90;;;5.30;99.90;;;;;;5004480;28;20226;-82
2021/12/02 09:19:41;;;;;;;2.55;2.00;;;5.30;99.90;;;;;;5004604;28;20210;-83
2021/12/02 09:22:08;;;;;;;1.90;1.80;;;5.20;99.90;;;;;;5004146;28;20218;-82
2021/12/02 09:24:39;;;;;;;3.22;1.80;;;5.20;99.90;;;;;;5004721;28;20218;-83
2021/12/02 09:27:07;;;;;;;2.40;2.20;;;5.20;99.90;;;;;;5004789;28;20216;-83
2021/12/02 09:29:34;;;;;;;2.15;2.05;;;5.10;99.90;;;;;;5004472;28;20224;-83
2021/12/02 09:32:01;;;;;;;1.65;1.55;;;5.00;99.90;;;;;;5003806;28;20225;-83
2021/12/02 09:34:28;;;;;;;2.25;2.05;;;5.10;99.90;;;;;;5003544;28;20242;-82
2021/12/02 09:36:56;;;;;;;2.15;2.05;;;5.20;99.90;;;;;;5002847;28;20242;-82
2021/12/02 09:39:28;;;;;;;2.00;1.65;;;5.30;99.90;;;;;;5003096;28;20633;-82
2021/12/02 09:41:55;;;;;;;2.22;1.80;;;5.40;99.90;;;;;;5001207;28;20208;-82
2021/12/02 09:44:23;;;;;;;1.10;1.10;;;5.50;99.90;;;;;;5003989;28;20200;-82
2021/12/02 09:46:50;;;;;;;2.55;1.50;;;5.50;99.90;;;;;;5007328;28;20235;-82
2021/12/02 09:49:18;;;;;;;2.10;2.00;;;5.40;99.90;;;;;;5004243;28;20655;-83
2021/12/02 09:51:57;;;;;;;1.50;1.40;;;5.40;99.90;;;;;;4997892;28;20214;-83
2021/12/02 09:54:27;;;;;;;1.40;1.30;;;5.40;99.90;;;;;;4993417;28;20239;-82
2021/12/02 09:56:56;;;;;;;0.90;0.90;;;5.40;99.90;;;;;;4996790;28;20228;-82
2021/12/02 09:59:26;;;;;;;0.70;0.70;;;5.40;99.90;;;;;;4997044;28;20200;-82
2021/12/02 10:01:58;;;;;;;1.30;1.08;;;5.30;99.90;;;;;;4996248;28;20302;-82
2021/12/02 10:04:26;;;;;;;0.88;0.88;;;5.30;99.90;;;;;;4997152;28;20212;-82
2021/12/02 10:07:09;;;;;;;1.05;1.00;;;5.20;99.90;;;;;;5249370;22;20238;-82
2021/12/02 10:09:43;;;;;;;1.48;1.38;;;5.20;99.90;;;;;;5036651;28;20240;-82
2021/12/02 10:12:18;;;;;;;1.30;0.98;;;5.30;99.90;;;;;;5048046;28;20292;-81
2021/12/02 10:14:53;;;;;;;1.10;1.08;;;4.90;99.90;;;;;;5052712;28;20780;-81
2021/12/02 10:17:24;;;;;;;0.70;0.70;;;4.90;99.90;;;;;;5050578;28;20585;-81
2021/12/02 10:20:19;;;;;;;0.88;0.88;;;4.40;99.90;;;;;;5020141;28;20769;-81
2021/12/02 10:23:09;;;;;;;0.50;0.50;;;4.00;99.90;;;;;;5021372;28;20197;-82
2021/12/02 10:25:37;;;;;;;0.70;0.70;;;3.10;99.90;;;;;;5121506;22;20303;-82
2021/12/02 10:28:06;;;;;;;2.83;0.88;;;2.70;99.90;;;;;;5059973;28;20212;-82
2021/12/02 10:30:35;;;;;;;0.85;0.85;;;2.40;99.90;;;;;;5059508;28;20297;-82
2021/12/02 10:33:02;;;;;;;0.88;0.80;;;2.10;99.90;;;;;;5061280;28;20226;-81
2021/12/02 10:35:41;;;;;;;0.80;0.73;;;2.10;99.90;;;;;;5059647;28;20263;-81
2021/12/02 10:38:11;;;;;;;0.60;0.60;;;2.10;99.90;;;;;;5019501;28;20739;-84
2021/12/02 10:40:38;;;;;;;0.80;0.80;;;2.00;99.90;;;;;;5026528;28;20211;-81
2021/12/02 10:43:10;;;;;;;1.05;1.05;;;2.20;99.90;;;;;;5040935;28;20209;-80
2021/12/02 10:45:38;;;;;;;1.08;1.02;;;2.20;99.90;;;;;;5041015;28;20227;-79
2021/12/02 10:48:05;;;;;;;2.65;1.33;;;2.30;99.90;;;;;;5059209;28;20207;-82
2021/12/02 10:50:39;;;;;;;1.08;1.08;;;2.30;99.90;;;;;;5052408;28;20233;-80
2021/12/02 10:53:06;;;;;;;2.42;2.30;;;2.40;99.90;;;;;;5048431;28;20225;-81
2021/12/02 10:55:33;;;;;;;1.85;0.93;;;2.50;99.90;;;;;;5046920;28;20230;-80
2021/12/02 10:58:02;;;;;;;1.00;0.85;;;2.50;99.90;;;;;;5039903;28;20202;-80
2021/12/02 11:00:30;;;;;;;1.98;1.50;;;2.50;99.90;;;;;;5041262;28;20209;-80
2021/12/02 11:03:07;;;;;;;2.70;1.20;;;2.50;99.90;;;;;;5061616;28;20221;-81
2021/12/02 11:05:36;;;;;;;0.82;0.82;;;2.50;99.90;;;;;;5053734;28;20623;-80
2021/12/02 11:08:05;;;;;;;2.28;1.08;;;2.40;99.90;;;;;;5052845;28;20210;-79
2021/12/02 11:10:35;;;;;;;0.95;0.80;;;2.40;99.90;;;;;;5056690;28;20301;-79
2021/12/02 11:13:02;;;;;;;0.82;0.80;;;2.50;99.90;;;;;;5068497;28;20648;-80
2021/12/02 11:15:30;;;;;;;0.40;0.40;;;2.40;99.90;;;;;;5059319;28;20231;-80
2021/12/02 11:18:01;;;;;;;0.85;0.70;;;2.40;99.90;;;;;;5061585;28;20227;-81
2021/12/02 11:20:31;;;;;;;1.75;1.60;;;2.40;99.90;;;;;;5045766;28;20226;-80
2021/12/02 11:23:01;;;;;;;1.75;0.98;;;2.50;99.90;;;;;;5039046;28;20609;-80
2021/12/02 11:25:29;;;;;;;3.85;1.27;;;2.50;99.90;;;;;;5053064;28;20240;-81
2021/12/02 11:27:56;;;;;;;1.88;1.77;;;2.60;99.90;;;;;;5060860;28;20210;-81
2021/12/02 11:30:24;;;;;;;0.50;0.50;;;2.50;99.90;;;;;;5055375;28;20208;-81
2021/12/02 11:32:55;;;;;;;1.17;1.05;;;2.60;99.90;;;;;;5046112;28;20202;-82
2021/12/02 11:35:31;;;;;;;1.02;0.70;;;2.50;99.90;;;;;;5053899;28;20253;-80
2021/12/02 11:38:01;;;;;;;0.90;0.90;;;2.60;99.90;;;;;;5064652;28;20203;-81
2021/12/02 11:40:31;;;;;;;1.05;1.05;;;2.70;99.90;;;;;;5052197;28;20677;-80
2021/12/02 11:42:58;;;;;;;2.00;1.55;;;2.70;99.90;;;;;;5043575;28;20207;-80
2021/12/02 11:45:27;;;;;;;1.02;0.95;;;2.70;99.90;;;;;;5060838;28;20230;-80
2021/12/02 11:47:55;;;;;;;1.25;1.15;;;2.60;99.90;;;;;;5050888;28;20223;-82
2021/12/02 11:50:26;;;;;;;1.77;1.67;;;2.70;99.90;;;;;;5046488;28;20271;-80
2021/12/02 11:52:53;;;;;;;2.53;1.65;;;2.70;99.90;;;;;;5054792;28;20206;-81
2021/12/02 11:55:22;;;;;;;1.10;1.00;;;2.80;99.90;;;;;;5059216;28;20716;-80
2021/12/02 12:00:45;;;;;;;1.80;1.70;;;2.90;99.90;;;;;;5054276;28;20195;-82
2021/12/02 12:03:15;;;;;;;1.30;1.20;;;3.00;99.90;;;;;;5044551;28;20211;-82
2021/12/02 12:05:54;;;;;;;6.30;2.50;;;3.00;99.90;;;;;;5047886;28;20230;-81
2021/12/02 12:08:33;;;;;;;1.58;1.52;;;3.10;99.90;;;;;;5059876;28;20210;-81
2021/12/02 12:11:20;;;;;;;1.90;1.55;;;3.00;99.90;;;;;;5049491;28;20208;-80
2021/12/02 12:13:48;;;;;;;3.30;1.92;;;3.10;99.90;;;;;;5038403;28;20249;-81
2021/12/02 12:16:21;;;;;;;3.90;2.25;;;3.30;99.90;;;;;;5053473;28;20222;-81
2021/12/02 12:18:48;;;;;;;1.83;1.70;;;3.40;99.90;;;;;;5058571;28;20209;-80
2021/12/02 12:21:16;;;;;;;1.65;1.55;;;3.40;99.90;;;;;;5062017;28;20200;-81
2021/12/02 12:23:59;;;;;;;2.15;1.95;;;3.40;99.90;;;;;;5058581;28;20208;-81
2021/12/02 12:26:33;;;;;;;2.08;1.98;;;3.30;99.90;;;;;;5039697;28;20232;-86
2021/12/02 12:29:33;;;;;;;3.20;1.63;;;3.40;99.90;;;;;;5039788;28;20208;-81
2021/12/02 12:35:36;;;;;;;2.38;1.50;;;3.50;99.90;;;;;;5027788;28;20231;-81
2021/12/02 12:38:20;;;;;;;3.40;1.70;;;3.40;99.90;;;;;;5056719;28;20193;-82
2021/12/02 12:40:49;;;;;;;2.75;1.75;;;3.40;99.90;;;;;;5048373;28;20636;-82
2021/12/02 12:43:33;;;;;;;1.60;1.50;;;3.40;99.90;;;;;;5038714;28;20272;-82
2021/12/02 12:46:11;;;;;;;1.33;1.23;;;3.30;99.90;;;;;;5041415;28;20249;-81
2021/12/02 12:48:38;;;;;;;4.95;1.92;;;3.20;99.90;;;;;;5040616;28;20688;-81
2021/12/02 12:51:31;;;;;;;3.20;1.83;;;3.20;99.90;;;;;;5049678;28;20208;-81
2021/12/02 12:54:00;;;;;;;2.92;2.60;;;3.10;99.90;;;;;;5048369;28;20251;-80
2021/12/02 12:56:30;;;;;;;1.75;1.65;;;3.20;99.90;;;;;;5039400;28;20227;-80
2021/12/02 12:59:01;;;;;;;1.90;1.70;;;3.20;99.90;;;;;;5052424;28;20227;-80
2021/12/02 13:01:29;;;;;;;1.98;1.60;;;3.10;99.90;;;;;;5058351;28;20213;-82
2021/12/02 13:04:14;;;;;;;2.10;1.83;;;3.10;99.90;;;;;;5057382;28;20197;-82
2021/12/02 13:07:02;;;;;;;1.75;1.65;;;3.20;99.90;;;;;;5059393;28;20229;-82
2021/12/02 13:09:43;;;;;;;2.20;2.10;;;3.10;99.90;;;;;;5057100;28;20268;-81
2021/12/02 13:12:12;;;;;;;3.45;2.55;;;3.10;99.90;;;;;;5057340;28;20216;-83
2021/12/02 13:14:40;;;;;;;2.58;2.38;;;3.30;99.90;;;;;;5040438;28;20222;-81
2021/12/02 13:17:35;;;;;;;2.70;2.50;;;3.30;99.90;;;;;;5041408;28;20219;-81
2021/12/02 13:20:19;;;;;;;2.35;2.08;;;3.30;99.90;;;;;;5056962;28;20210;-81
2021/12/02 13:22:46;;;;;;;4.10;3.80;;;3.20;99.90;;;;;;5062050;28;20205;-80
2021/12/02 13:25:28;;;;;;;2.85;2.20;;;3.20;99.90;;;;;;5018409;28;20231;-82
2021/12/02 13:27:55;;;;;;;2.45;2.25;;;3.20;99.90;;;;;;5024682;28;20212;-81